Terminal Aerodrome Forecast
Issued by NWS Kansas City/Pleasant Hill, MO

Home | Current Version | Previous Version | Text Only | Print | Product List | Glossary On
Versions: 1 2 3 4 5 6 7 8 9 10 11 12 13 14
000
FTUS43 KEAX 200500
TAFMCI
TAF
KMCI 200520Z 2006/2106 19007KT P6SM SCT150
     FM200700 19007KT 5SM BR BKN005
     FM201500 27010KT P6SM FEW015 SCT050
     FM202300 29007KT P6SM VCTS BKN050CB
      TEMPO 2023/2103 -TSRA=

USA.gov is the U.S. government's official web portal to all federal, state and local government web resources and services.